メインページ
METAR-TAF:

METAR-TAF

空港 :

ビンガムトン, ニューヨーク, アメリカ合衆国

緯度: 42-12-28N, 経度: 075-58-53W, 海抜: 496m

現時点の気象観測

当レポートは11分前の13:53(UTC)に作成
西の風 14kt、最大23ktの突風を伴う
気温 0°C
湿度 80%
気圧 1005 hPa
視程: 16.1km
高度5000ftの曇り

METAR: KBGM 151353Z 28014G23KT 10SM OVC050 00/M03 A2968 RMK AO2 SLP065 T00001033

時間: 09:04 (14:04 UTC)

予報

当レポートは2時間9分前の11:55(UTC)に作成
予報は15日の 12時(UTC)から 16日の 12時(UTC)まで有効
西の風 10kt、最大20ktの突風を伴う
視程: 10km
高度1500ftの曇り
15日の 12時(UTC)から 15日の 14時(UTC)まで一時的に
視程: 1.6km
高度400ftの曇り
15日の 1800時(UTC)から
西/北西の風 15kt、最大25ktの突風を伴う
視程: 10km
高度6000ftの千切れ雲あり
16日の 0500時(UTC)から
西/北西の風 8kt
視程: 10km
高度6000ftの千切れ雲あり

TAF: KBGM 151155Z 1512/1612 27010G20KT P6SM OVC015 TEMPO 1512/1514 1SM BR OVC004 FM151800 29015G25KT P6SM BKN060 FM160500 29008KT P6SM BKN060

4,000以上の空港の気象観測と天気予報(METAR報とTAF報)

利用可能な観測所は地図上に黄色い丸と赤い丸で示す。

丸の上にカーソルを重ねると観測所名を参照できる。

次にクリックすると気象観測と天気予報を参照できる。

マップの切り替え:黒色「×」印の緑ボタンをクリックして拡大、「-」印の緑ボタンをクリックして縮小、緑色の三角印をクリックして隣りの地図に切り替え


METAR-TAF: